Time;durP1;ratioP1;P1;durP2;ratioP2;P2;SDS_P1;SDS_P2;PMS_P1;PMS_P2;Temp;Humidity;BMP_temperature;BMP_pressure;BME280_temperature;BME280_humidity;BME280_pressure;Samples;Min_cycle;Max_cycle;Signal;HPM_P1;HPM_P2
2023/07/23 00:01:40;;;;;;;9.75;6.20;;;;;;;;;;4937200;29;20197;-70
2023/07/23 00:04:05;;;;;;;11.88;6.68;;;;;;;;;;4938944;28;20199;-70
2023/07/23 00:06:31;;;;;;;9.98;5.95;;;;;;;;;;4938732;29;20189;-70
2023/07/23 00:08:56;;;;;;;19.77;7.07;;;;;;;;;;4939268;28;20217;-70
2023/07/23 00:11:21;;;;;;;11.65;7.05;;;;;;;;;;4939057;29;21051;-70
2023/07/23 00:13:47;;;;;;;12.95;6.53;;;;;;;;;;4937265;29;20316;-70
2023/07/23 00:16:12;;;;;;;10.32;6.78;;;;;;;;;;4939631;29;20188;-71
2023/07/23 00:18:37;;;;;;;11.00;6.70;;;;;;;;;;4933450;28;20306;-70
2023/07/23 00:21:03;;;;;;;14.23;7.07;;;;;;;;;;4928531;29;20671;-70
2023/07/23 00:23:28;;;;;;;11.75;6.68;;;;;;;;;;4930364;29;20189;-70
2023/07/23 00:25:54;;;;;;;13.98;7.15;;;;;;;;;;4931738;29;20263;-71
2023/07/23 00:28:19;;;;;;;12.65;7.57;;;;;;;;;;4936551;28;20209;-71
2023/07/23 00:30:44;;;;;;;13.93;7.68;;;;;;;;;;4940075;29;20248;-70
2023/07/23 00:33:10;;;;;;;16.80;8.05;;;;;;;;;;4936974;29;20180;-70
2023/07/23 00:35:35;;;;;;;11.25;7.07;;;;;;;;;;4937870;28;20690;-70
2023/07/23 00:38:00;;;;;;;14.43;7.25;;;;;;;;;;4936881;28;20835;-69
2023/07/23 00:40:25;;;;;;;9.63;6.80;;;;;;;;;;4977812;23;20709;-76
2023/07/23 00:42:51;;;;;;;12.27;7.18;;;;;;;;;;4967250;28;20199;-76
2023/07/23 00:45:16;;;;;;;13.55;6.78;;;;;;;;;;4966889;28;20218;-77
2023/07/23 00:47:42;;;;;;;12.60;7.63;;;;;;;;;;4967956;28;21663;-77
2023/07/23 00:50:08;;;;;;;15.65;7.00;;;;;;;;;;4967877;28;20207;-76
2023/07/23 00:52:33;;;;;;;12.40;6.97;;;;;;;;;;4965877;28;20184;-76
2023/07/23 00:54:59;;;;;;;13.27;7.60;;;;;;;;;;4963229;28;20573;-78
2023/07/23 00:57:24;;;;;;;13.00;7.18;;;;;;;;;;4966654;28;20204;-77
2023/07/23 00:59:49;;;;;;;10.32;7.10;;;;;;;;;;4964823;28;20290;-77
2023/07/23 01:02:14;;;;;;;9.82;6.70;;;;;;;;;;4962184;28;20184;-77
2023/07/23 01:04:40;;;;;;;12.60;6.70;;;;;;;;;;4970202;28;20215;-77
2023/07/23 01:07:07;;;;;;;11.98;6.47;;;;;;;;;;4969523;28;20192;-78
2023/07/23 01:09:32;;;;;;;14.13;8.10;;;;;;;;;;4966373;28;20204;-77
2023/07/23 01:11:58;;;;;;;10.57;6.97;;;;;;;;;;4967078;28;20180;-76
2023/07/23 01:14:24;;;;;;;12.05;6.78;;;;;;;;;;4969203;28;20266;-77
2023/07/23 01:16:49;;;;;;;12.35;7.15;;;;;;;;;;4967476;28;20211;-77
2023/07/23 01:19:15;;;;;;;11.18;6.88;;;;;;;;;;4964393;28;20864;-77
2023/07/23 01:21:40;;;;;;;9.45;5.90;;;;;;;;;;4968724;28;20320;-78
2023/07/23 01:24:05;;;;;;;10.88;6.95;;;;;;;;;;4965876;28;20198;-77
2023/07/23 01:26:30;;;;;;;12.98;7.07;;;;;;;;;;4961606;28;20709;-78
2023/07/23 01:28:56;;;;;;;13.65;6.85;;;;;;;;;;4961307;28;20322;-78
2023/07/23 01:31:21;;;;;;;13.05;7.05;;;;;;;;;;4960764;28;20644;-78
2023/07/23 01:33:46;;;;;;;11.15;7.10;;;;;;;;;;4960169;28;20646;-77
2023/07/23 01:36:12;;;;;;;11.70;7.15;;;;;;;;;;4961068;28;20736;-78
2023/07/23 01:38:37;;;;;;;12.65;6.85;;;;;;;;;;4960155;28;20223;-78
2023/07/23 01:41:02;;;;;;;12.55;6.78;;;;;;;;;;4961467;28;20193;-78
2023/07/23 01:43:28;;;;;;;12.93;8.05;;;;;;;;;;4960585;28;20187;-77
2023/07/23 01:45:53;;;;;;;13.73;7.10;;;;;;;;;;4976099;28;20590;-77
2023/07/23 01:48:19;;;;;;;12.70;7.68;;;;;;;;;;4962995;28;20184;-77
2023/07/23 01:50:44;;;;;;;10.73;7.47;;;;;;;;;;4962202;28;21012;-77
2023/07/23 01:53:09;;;;;;;9.63;6.75;;;;;;;;;;4966128;28;20185;-76
2023/07/23 01:55:34;;;;;;;11.98;7.10;;;;;;;;;;4968548;28;20694;-77
2023/07/23 01:58:00;;;;;;;10.75;6.93;;;;;;;;;;4971353;28;20199;-78
2023/07/23 02:00:25;;;;;;;11.20;6.95;;;;;;;;;;4968789;28;20326;-78
2023/07/23 02:02:50;;;;;;;10.90;6.68;;;;;;;;;;4972192;28;20239;-78
2023/07/23 02:05:17;;;;;;;13.00;6.45;;;;;;;;;;4972605;28;20337;-77
2023/07/23 02:07:43;;;;;;;10.88;6.90;;;;;;;;;;4970393;28;20219;-78
2023/07/23 02:10:08;;;;;;;11.90;6.93;;;;;;;;;;4970841;28;20346;-77
2023/07/23 02:12:33;;;;;;;11.05;6.85;;;;;;;;;;4971677;28;20184;-77
2023/07/23 02:14:59;;;;;;;13.65;7.72;;;;;;;;;;4971220;28;20295;-77
2023/07/23 02:17:25;;;;;;;10.93;7.65;;;;;;;;;;4971037;28;20595;-77
2023/07/23 02:19:50;;;;;;;10.07;7.22;;;;;;;;;;4966945;28;20749;-77
2023/07/23 02:22:15;;;;;;;14.20;8.48;;;;;;;;;;4965817;28;20275;-77
2023/07/23 02:24:40;;;;;;;11.38;7.13;;;;;;;;;;4962483;28;20451;-78
2023/07/23 02:27:05;;;;;;;12.98;7.47;;;;;;;;;;4964535;28;20184;-77
2023/07/23 02:29:31;;;;;;;9.77;6.00;;;;;;;;;;4965128;28;20334;-77
2023/07/23 02:31:56;;;;;;;14.43;6.28;;;;;;;;;;4971244;28;20215;-77
2023/07/23 02:34:21;;;;;;;10.68;6.68;;;;;;;;;;4966925;28;20240;-77
2023/07/23 02:36:46;;;;;;;10.85;6.30;;;;;;;;;;4965037;28;20184;-77
2023/07/23 02:39:12;;;;;;;10.43;6.45;;;;;;;;;;4962587;28;20216;-77
2023/07/23 02:41:37;;;;;;;10.35;6.10;;;;;;;;;;4963741;28;20188;-77
2023/07/23 02:44:02;;;;;;;9.20;6.13;;;;;;;;;;4964557;28;20188;-78
2023/07/23 02:46:29;;;;;;;10.13;7.00;;;;;;;;;;4963410;28;20211;-78
2023/07/23 02:48:54;;;;;;;11.57;6.65;;;;;;;;;;4962712;28;21014;-78
2023/07/23 02:51:20;;;;;;;10.75;6.35;;;;;;;;;;4963238;28;20993;-78
2023/07/23 02:53:45;;;;;;;11.18;7.18;;;;;;;;;;4964357;28;20180;-78
2023/07/23 02:56:10;;;;;;;8.75;6.43;;;;;;;;;;4970221;28;20187;-77
2023/07/23 02:58:35;;;;;;;10.35;6.43;;;;;;;;;;4966236;28;20613;-79
2023/07/23 03:01:01;;;;;;;8.75;6.95;;;;;;;;;;4970689;28;20188;-78
2023/07/23 03:03:26;;;;;;;9.30;6.20;;;;;;;;;;4969595;28;20693;-77
2023/07/23 03:05:51;;;;;;;10.02;6.18;;;;;;;;;;4969576;28;20982;-78
2023/07/23 03:08:16;;;;;;;11.38;6.88;;;;;;;;;;4972800;28;20687;-78
2023/07/23 03:10:42;;;;;;;10.90;6.75;;;;;;;;;;4971561;28;20695;-77
2023/07/23 03:13:08;;;;;;;11.68;7.03;;;;;;;;;;4972075;28;20902;-77
2023/07/23 03:15:34;;;;;;;12.00;7.80;;;;;;;;;;4984694;28;20234;-78
2023/07/23 03:17:59;;;;;;;11.68;6.30;;;;;;;;;;4970300;28;20199;-77
2023/07/23 03:20:25;;;;;;;8.23;6.18;;;;;;;;;;4970146;28;20212;-78
2023/07/23 03:22:50;;;;;;;17.17;6.72;;;;;;;;;;4962456;28;20202;-77
2023/07/23 03:25:16;;;;;;;10.82;6.70;;;;;;;;;;4965659;28;20303;-79
2023/07/23 03:27:42;;;;;;;10.35;6.88;;;;;;;;;;4964625;28;22037;-77
2023/07/23 03:30:07;;;;;;;9.70;6.43;;;;;;;;;;4963396;28;20290;-77
2023/07/23 03:32:33;;;;;;;9.70;6.10;;;;;;;;;;4965107;28;20734;-76
2023/07/23 03:34:58;;;;;;;8.75;6.05;;;;;;;;;;4963332;28;20190;-78
2023/07/23 03:37:23;;;;;;;11.68;7.10;;;;;;;;;;4965813;28;20190;-77
2023/07/23 03:39:48;;;;;;;9.52;7.05;;;;;;;;;;4965285;28;20358;-78
2023/07/23 03:42:15;;;;;;;8.93;6.72;;;;;;;;;;4964989;28;20223;-78
2023/07/23 03:44:40;;;;;;;11.93;7.50;;;;;;;;;;4964486;28;20295;-78
2023/07/23 03:47:08;;;;;;;10.57;6.80;;;;;;;;;;4966186;28;20757;-77
2023/07/23 03:49:33;;;;;;;13.13;7.47;;;;;;;;;;4970468;28;20216;-77
2023/07/23 03:51:58;;;;;;;10.05;6.60;;;;;;;;;;4968805;28;20400;-78
2023/07/23 03:54:24;;;;;;;12.98;7.72;;;;;;;;;;4972634;28;20179;-77
2023/07/23 03:56:49;;;;;;;10.43;6.38;;;;;;;;;;4971099;28;20177;-78
2023/07/23 03:59:14;;;;;;;9.65;6.30;;;;;;;;;;4970890;28;20286;-77
2023/07/23 04:01:40;;;;;;;10.38;6.78;;;;;;;;;;4968135;28;20239;-77
2023/07/23 04:04:05;;;;;;;8.43;5.78;;;;;;;;;;4963678;28;20199;-78
2023/07/23 04:06:30;;;;;;;10.38;6.15;;;;;;;;;;4966722;28;21068;-78
2023/07/23 04:08:55;;;;;;;10.25;6.43;;;;;;;;;;4969864;28;20294;-77
2023/07/23 04:11:20;;;;;;;12.25;6.95;;;;;;;;;;4970131;28;20689;-77
2023/07/23 04:13:47;;;;;;;10.07;6.18;;;;;;;;;;4970064;28;20192;-77
2023/07/23 04:16:12;;;;;;;8.32;5.60;;;;;;;;;;4969856;28;20195;-76
2023/07/23 04:18:45;;;;;;;11.27;5.78;;;;;;;;;;4970733;28;20196;-77
2023/07/23 04:21:10;;;;;;;9.32;5.32;;;;;;;;;;4968564;28;21245;-78
2023/07/23 04:23:35;;;;;;;9.55;6.18;;;;;;;;;;4970592;28;20298;-77
2023/07/23 04:26:01;;;;;;;7.00;5.57;;;;;;;;;;4970468;28;20207;-78
2023/07/23 04:28:26;;;;;;;9.15;6.20;;;;;;;;;;4968779;28;20210;-78
2023/07/23 04:30:51;;;;;;;8.65;5.15;;;;;;;;;;4970562;28;20188;-77
2023/07/23 04:33:17;;;;;;;7.38;5.50;;;;;;;;;;4968982;28;20183;-77
2023/07/23 04:35:42;;;;;;;7.05;4.80;;;;;;;;;;4968381;28;20677;-78
2023/07/23 04:38:08;;;;;;;7.63;4.88;;;;;;;;;;4969820;28;20188;-78
2023/07/23 04:40:35;;;;;;;8.82;5.22;;;;;;;;;;4970941;28;20393;-77
2023/07/23 04:43:00;;;;;;;8.45;5.32;;;;;;;;;;4968083;28;20191;-76
2023/07/23 04:45:25;;;;;;;11.60;5.63;;;;;;;;;;4968907;28;20210;-77
2023/07/23 04:47:50;;;;;;;6.53;5.13;;;;;;;;;;4967074;28;20180;-77
2023/07/23 04:50:16;;;;;;;7.00;4.97;;;;;;;;;;4969065;28;20208;-77
2023/07/23 04:52:41;;;;;;;9.10;5.10;;;;;;;;;;4969935;28;20184;-78
2023/07/23 04:55:08;;;;;;;6.97;4.70;;;;;;;;;;4969428;28;20198;-77
2023/07/23 04:57:33;;;;;;;7.50;5.18;;;;;;;;;;4966883;28;20188;-77
2023/07/23 04:59:58;;;;;;;7.35;5.20;;;;;;;;;;4967162;28;20223;-77
2023/07/23 05:02:24;;;;;;;8.30;5.43;;;;;;;;;;4967262;28;21002;-79
2023/07/23 05:04:49;;;;;;;8.13;4.97;;;;;;;;;;4970130;28;20587;-78
2023/07/23 05:07:14;;;;;;;9.65;5.38;;;;;;;;;;4962058;28;20211;-77
2023/07/23 05:09:41;;;;;;;7.18;4.72;;;;;;;;;;4970867;28;20212;-78
2023/07/23 05:12:07;;;;;;;11.93;5.50;;;;;;;;;;4970651;28;20210;-76
2023/07/23 05:14:34;;;;;;;6.70;4.47;;;;;;;;;;4971598;28;20270;-76
2023/07/23 05:16:59;;;;;;;12.30;5.05;;;;;;;;;;4969749;28;20212;-76
2023/07/23 05:19:24;;;;;;;10.57;4.65;;;;;;;;;;4969077;28;20750;-76
2023/07/23 05:21:50;;;;;;;10.93;5.57;;;;;;;;;;4966975;28;20607;-77
2023/07/23 05:24:15;;;;;;;7.03;4.38;;;;;;;;;;4960783;28;20578;-78
2023/07/23 05:26:40;;;;;;;10.05;5.13;;;;;;;;;;4962689;28;20990;-77
2023/07/23 05:29:05;;;;;;;10.02;4.97;;;;;;;;;;4961552;28;20200;-77
2023/07/23 05:31:30;;;;;;;9.90;5.50;;;;;;;;;;4965253;28;20654;-77
2023/07/23 05:33:56;;;;;;;8.13;4.80;;;;;;;;;;4966083;28;20605;-77
2023/07/23 05:36:21;;;;;;;10.13;4.45;;;;;;;;;;4965399;28;20188;-77
2023/07/23 05:38:46;;;;;;;10.20;4.40;;;;;;;;;;4969195;28;20250;-77
2023/07/23 05:41:11;;;;;;;18.58;5.93;;;;;;;;;;4973111;28;20212;-77
2023/07/23 05:43:36;;;;;;;12.93;5.50;;;;;;;;;;4970601;28;20192;-76
2023/07/23 05:46:02;;;;;;;6.88;4.85;;;;;;;;;;4973487;28;20216;-77
2023/07/23 05:48:27;;;;;;;9.07;4.55;;;;;;;;;;4973670;28;20210;-76
2023/07/23 05:50:52;;;;;;;12.65;5.40;;;;;;;;;;4973635;28;20232;-76
2023/07/23 05:53:18;;;;;;;9.77;5.10;;;;;;;;;;4973521;28;20184;-76
2023/07/23 05:55:43;;;;;;;9.10;4.95;;;;;;;;;;4975245;28;20199;-78
2023/07/23 05:58:08;;;;;;;8.13;4.40;;;;;;;;;;4969097;28;20180;-76
2023/07/23 06:00:33;;;;;;;9.65;4.30;;;;;;;;;;4968020;28;20246;-76
2023/07/23 06:02:58;;;;;;;7.82;4.75;;;;;;;;;;4973352;28;20318;-78
2023/07/23 06:05:24;;;;;;;10.32;4.95;;;;;;;;;;4974055;28;20260;-79
2023/07/23 06:07:49;;;;;;;11.32;5.13;;;;;;;;;;4972247;28;20184;-80
2023/07/23 06:10:14;;;;;;;9.35;5.05;;;;;;;;;;4976426;28;20275;-80
2023/07/23 06:12:39;;;;;;;12.07;5.50;;;;;;;;;;4976512;28;20207;-79
2023/07/23 06:15:05;;;;;;;8.55;4.85;;;;;;;;;;4975589;28;20772;-78
2023/07/23 06:17:30;;;;;;;6.80;4.50;;;;;;;;;;4974373;28;20227;-78
2023/07/23 06:19:55;;;;;;;9.30;4.82;;;;;;;;;;4974304;28;20218;-76
2023/07/23 06:22:20;;;;;;;8.07;4.78;;;;;;;;;;4971294;28;20192;-78
2023/07/23 06:24:46;;;;;;;8.98;6.25;;;;;;;;;;4969848;28;20215;-77
2023/07/23 06:27:11;;;;;;;8.18;4.63;;;;;;;;;;4972315;28;20184;-77
2023/07/23 06:29:36;;;;;;;8.80;4.38;;;;;;;;;;4972299;28;20246;-77
2023/07/23 06:32:02;;;;;;;6.60;4.55;;;;;;;;;;4968194;28;20199;-77
2023/07/23 06:34:27;;;;;;;10.57;4.80;;;;;;;;;;4971162;28;20195;-77
2023/07/23 06:36:52;;;;;;;9.60;4.70;;;;;;;;;;4971448;28;20181;-77
2023/07/23 06:39:19;;;;;;;9.63;5.47;;;;;;;;;;4980858;23;20254;-70
2023/07/23 06:41:44;;;;;;;7.75;4.63;;;;;;;;;;4980424;28;20569;-71
2023/07/23 06:44:09;;;;;;;7.95;4.70;;;;;;;;;;4962480;28;20176;-69
2023/07/23 06:46:35;;;;;;;6.72;4.07;;;;;;;;;;4964783;28;20220;-71
2023/07/23 06:49:00;;;;;;;11.10;4.45;;;;;;;;;;4966704;28;20303;-69
2023/07/23 06:51:25;;;;;;;7.13;4.60;;;;;;;;;;4968384;28;20217;-69
2023/07/23 06:53:50;;;;;;;10.27;4.50;;;;;;;;;;4964621;28;20192;-69
2023/07/23 06:56:17;;;;;;;8.32;4.85;;;;;;;;;;4963672;28;20977;-69
2023/07/23 06:58:43;;;;;;;8.15;4.38;;;;;;;;;;4965179;28;20713;-69
2023/07/23 07:01:11;;;;;;;6.00;3.95;;;;;;;;;;4958545;28;20195;-69
2023/07/23 07:03:36;;;;;;;8.60;4.45;;;;;;;;;;4963092;28;20192;-69
2023/07/23 07:06:01;;;;;;;11.10;4.07;;;;;;;;;;4962179;28;20269;-68
2023/07/23 07:08:28;;;;;;;8.95;4.97;;;;;;;;;;4963309;28;20187;-69
2023/07/23 07:11:00;;;;;;;7.65;4.63;;;;;;;;;;4963990;28;20909;-67
2023/07/23 07:13:26;;;;;;;7.35;4.53;;;;;;;;;;4961373;28;20251;-68
2023/07/23 07:15:52;;;;;;;6.68;4.50;;;;;;;;;;4964309;28;20634;-68
2023/07/23 07:18:17;;;;;;;8.63;4.40;;;;;;;;;;4961804;28;20219;-67
2023/07/23 07:20:42;;;;;;;6.78;4.10;;;;;;;;;;4961806;28;20219;-68
2023/07/23 07:23:08;;;;;;;7.25;4.70;;;;;;;;;;4962560;28;20188;-67
2023/07/23 07:25:33;;;;;;;9.95;4.65;;;;;;;;;;4963361;28;20302;-68
2023/07/23 07:27:58;;;;;;;7.47;4.85;;;;;;;;;;4963064;28;20258;-69
2023/07/23 07:30:24;;;;;;;8.68;4.68;;;;;;;;;;4964043;28;20751;-69
2023/07/23 07:32:51;;;;;;;9.75;4.63;;;;;;;;;;4962786;28;20246;-69
2023/07/23 07:35:16;;;;;;;5.20;3.88;;;;;;;;;;4962886;28;20187;-67
2023/07/23 07:37:41;;;;;;;8.32;4.68;;;;;;;;;;4964329;28;20187;-68
2023/07/23 07:40:09;;;;;;;9.05;4.22;;;;;;;;;;4963299;28;20220;-67
2023/07/23 07:42:34;;;;;;;7.32;4.20;;;;;;;;;;4963788;28;20662;-69
2023/07/23 07:44:59;;;;;;;7.95;4.30;;;;;;;;;;4964567;28;20302;-69
2023/07/23 07:47:25;;;;;;;7.20;4.60;;;;;;;;;;4967266;28;20188;-68
2023/07/23 07:49:50;;;;;;;6.70;3.80;;;;;;;;;;4970381;28;20215;-69
2023/07/23 07:52:16;;;;;;;10.93;4.93;;;;;;;;;;4969037;28;20186;-69
2023/07/23 07:54:41;;;;;;;7.30;3.83;;;;;;;;;;4963395;28;20207;-68
2023/07/23 07:57:07;;;;;;;6.68;3.95;;;;;;;;;;4967900;28;20905;-67
2023/07/23 07:59:32;;;;;;;6.32;4.07;;;;;;;;;;4969432;28;20213;-68
2023/07/23 08:01:57;;;;;;;6.00;3.83;;;;;;;;;;4966684;28;20194;-66
2023/07/23 08:04:23;;;;;;;8.02;4.55;;;;;;;;;;4968984;28;20183;-68
2023/07/23 08:06:48;;;;;;;6.75;3.92;;;;;;;;;;4968719;28;20861;-70
2023/07/23 08:09:16;;;;;;;6.03;4.43;;;;;;;;;;4960630;28;20991;-68
2023/07/23 08:11:42;;;;;;;7.22;5.07;;;;;;;;;;4968125;28;20192;-69
2023/07/23 08:14:08;;;;;;;5.90;4.30;;;;;;;;;;4967814;28;20186;-67
2023/07/23 08:16:34;;;;;;;8.25;4.97;;;;;;;;;;4969860;28;20336;-69
2023/07/23 08:18:59;;;;;;;7.78;3.95;;;;;;;;;;4967341;28;20212;-68
2023/07/23 08:21:25;;;;;;;6.38;4.45;;;;;;;;;;4965408;28;20188;-69
2023/07/23 08:23:50;;;;;;;5.63;3.67;;;;;;;;;;4968757;28;20226;-67
2023/07/23 08:26:18;;;;;;;5.97;4.00;;;;;;;;;;4967454;28;20214;-69
2023/07/23 08:28:47;;;;;;;5.90;3.42;;;;;;;;;;4967438;28;20187;-68
2023/07/23 08:31:14;;;;;;;8.02;4.68;;;;;;;;;;4962151;28;20319;-68
2023/07/23 08:33:41;;;;;;;7.90;4.40;;;;;;;;;;4962440;28;22274;-68
2023/07/23 08:36:06;;;;;;;6.65;4.07;;;;;;;;;;4962851;28;20200;-68
2023/07/23 08:38:32;;;;;;;6.72;4.50;;;;;;;;;;4963147;28;20295;-68
2023/07/23 08:41:00;;;;;;;6.85;4.43;;;;;;;;;;4962332;28;21149;-68
2023/07/23 08:43:26;;;;;;;7.47;5.03;;;;;;;;;;4961616;28;20195;-68
2023/07/23 08:46:00;;;;;;;4.93;3.78;;;;;;;;;;4965684;28;20223;-68
2023/07/23 08:48:33;;;;;;;7.22;4.15;;;;;;;;;;4966400;28;20191;-68
2023/07/23 08:50:58;;;;;;;4.68;3.42;;;;;;;;;;4962328;28;20234;-68
2023/07/23 08:53:23;;;;;;;6.50;4.22;;;;;;;;;;4962540;28;20235;-68
2023/07/23 08:55:49;;;;;;;5.82;4.10;;;;;;;;;;4962402;28;20276;-67
2023/07/23 08:58:15;;;;;;;6.20;3.83;;;;;;;;;;4962409;28;20189;-67
2023/07/23 09:00:44;;;;;;;5.82;3.58;;;;;;;;;;4962423;28;20375;-68
2023/07/23 09:03:14;;;;;;;8.10;4.00;;;;;;;;;;4961358;28;20339;-67
2023/07/23 09:05:39;;;;;;;4.95;3.63;;;;;;;;;;4965595;28;20760;-69
2023/07/23 09:08:05;;;;;;;6.22;3.83;;;;;;;;;;4963568;28;20347;-67
2023/07/23 09:10:30;;;;;;;6.93;4.40;;;;;;;;;;4970206;28;20246;-68
2023/07/23 09:12:55;;;;;;;6.88;4.63;;;;;;;;;;4980431;28;20216;-67
2023/07/23 09:15:20;;;;;;;6.78;4.40;;;;;;;;;;4980902;28;20189;-68
2023/07/23 09:17:49;;;;;;;7.15;4.65;;;;;;;;;;4971129;28;20203;-69
2023/07/23 09:20:16;;;;;;;4.43;3.67;;;;;;;;;;4968354;28;20714;-67
2023/07/23 09:22:41;;;;;;;6.78;4.50;;;;;;;;;;4969924;28;20699;-67
2023/07/23 09:25:06;;;;;;;7.78;4.03;;;;;;;;;;4966111;28;20214;-68
2023/07/23 09:27:40;;;;;;;4.50;3.58;;;;;;;;;;4970108;28;20562;-68
2023/07/23 09:30:05;;;;;;;5.28;4.13;;;;;;;;;;4966333;28;20598;-68
2023/07/23 09:32:30;;;;;;;8.00;4.40;;;;;;;;;;4965646;28;20188;-68
2023/07/23 09:34:57;;;;;;;5.43;4.10;;;;;;;;;;4964989;28;20584;-68
2023/07/23 09:37:22;;;;;;;7.05;4.53;;;;;;;;;;4965346;28;20696;-68
2023/07/23 09:39:47;;;;;;;5.35;4.57;;;;;;;;;;4965026;28;20231;-69
2023/07/23 09:42:13;;;;;;;6.72;4.18;;;;;;;;;;4964793;28;20189;-68
2023/07/23 09:44:41;;;;;;;6.32;4.18;;;;;;;;;;4963952;28;20184;-68
2023/07/23 09:47:07;;;;;;;8.23;4.43;;;;;;;;;;4964642;28;20181;-68
2023/07/23 09:49:32;;;;;;;6.70;4.07;;;;;;;;;;4964820;28;20211;-69
2023/07/23 09:51:57;;;;;;;7.97;5.00;;;;;;;;;;4964257;28;20326;-70
2023/07/23 09:54:23;;;;;;;5.45;4.57;;;;;;;;;;4965409;28;20310;-69
2023/07/23 09:56:51;;;;;;;8.02;4.82;;;;;;;;;;4965027;28;20195;-68
2023/07/23 09:59:17;;;;;;;6.03;3.92;;;;;;;;;;4964558;28;20282;-68
2023/07/23 10:01:42;;;;;;;5.25;4.75;;;;;;;;;;4964975;28;20666;-69
2023/07/23 10:04:09;;;;;;;6.78;5.03;;;;;;;;;;4964894;28;20713;-68
2023/07/23 10:06:34;;;;;;;5.22;4.35;;;;;;;;;;4960186;28;20742;-68
2023/07/23 10:09:02;;;;;;;5.82;3.90;;;;;;;;;;4966182;28;20670;-69
2023/07/23 10:11:27;;;;;;;7.38;5.00;;;;;;;;;;4970181;28;20308;-69
2023/07/23 10:13:53;;;;;;;5.30;4.47;;;;;;;;;;4971262;28;20298;-69
2023/07/23 10:16:23;;;;;;;4.25;3.85;;;;;;;;;;4970737;28;20207;-69
2023/07/23 10:18:49;;;;;;;5.35;4.00;;;;;;;;;;4970444;28;20192;-69
2023/07/23 10:21:15;;;;;;;5.05;4.18;;;;;;;;;;4969084;28;20657;-68
2023/07/23 10:23:40;;;;;;;6.05;3.97;;;;;;;;;;4971319;28;20215;-68
2023/07/23 10:26:19;;;;;;;8.45;4.78;;;;;;;;;;4970946;28;20686;-68
2023/07/23 10:28:44;;;;;;;6.75;4.18;;;;;;;;;;4971105;28;20247;-68
2023/07/23 10:31:20;;;;;;;6.53;4.22;;;;;;;;;;4968036;28;20183;-68
2023/07/23 10:33:47;;;;;;;6.35;4.22;;;;;;;;;;4970404;28;20256;-68
2023/07/23 10:36:12;;;;;;;6.20;4.78;;;;;;;;;;4972347;28;20663;-68
2023/07/23 10:38:38;;;;;;;7.18;4.57;;;;;;;;;;4971333;28;20232;-68
2023/07/23 10:41:04;;;;;;;6.03;4.57;;;;;;;;;;4971685;28;20303;-68
2023/07/23 10:43:41;;;;;;;6.43;4.93;;;;;;;;;;4969440;28;20191;-68
2023/07/23 10:46:08;;;;;;;6.10;5.35;;;;;;;;;;4963458;28;20239;-68
2023/07/23 10:48:40;;;;;;;5.47;4.10;;;;;;;;;;4949765;28;20586;-68
2023/07/23 10:51:09;;;;;;;7.10;4.68;;;;;;;;;;4951208;28;20331;-68
2023/07/23 10:53:39;;;;;;;7.70;5.43;;;;;;;;;;4951440;28;20266;-68
2023/07/23 10:56:19;;;;;;;10.15;5.93;;;;;;;;;;4953114;28;20968;-68
2023/07/23 10:58:44;;;;;;;6.45;5.05;;;;;;;;;;4955984;28;20192;-67
2023/07/23 11:01:11;;;;;;;6.50;5.07;;;;;;;;;;4951670;28;20194;-67
2023/07/23 11:03:42;;;;;;;6.80;4.97;;;;;;;;;;4952250;28;20422;-68
2023/07/23 11:06:07;;;;;;;6.57;5.07;;;;;;;;;;4950328;28;21160;-67
2023/07/23 11:08:33;;;;;;;5.68;4.78;;;;;;;;;;4954765;28;20305;-67
2023/07/23 11:11:02;;;;;;;7.47;5.20;;;;;;;;;;4950311;28;20994;-68
2023/07/23 11:13:30;;;;;;;6.93;4.88;;;;;;;;;;4950722;28;20215;-68
2023/07/23 11:15:55;;;;;;;8.90;5.60;;;;;;;;;;4953056;28;20254;-68
2023/07/23 11:18:21;;;;;;;6.60;5.22;;;;;;;;;;4952332;28;20266;-68
2023/07/23 11:20:46;;;;;;;7.63;4.75;;;;;;;;;;4952330;28;20203;-69
2023/07/23 11:23:11;;;;;;;6.93;5.13;;;;;;;;;;4949699;28;20192;-68
2023/07/23 11:25:37;;;;;;;8.48;5.35;;;;;;;;;;4953842;28;20219;-68
2023/07/23 11:28:02;;;;;;;5.95;4.40;;;;;;;;;;4952377;28;20185;-68
2023/07/23 11:30:30;;;;;;;6.90;4.97;;;;;;;;;;4950844;28;20998;-67
2023/07/23 11:32:55;;;;;;;7.22;5.15;;;;;;;;;;4951901;28;20179;-68
2023/07/23 11:35:21;;;;;;;4.68;4.18;;;;;;;;;;4953031;28;20886;-68
2023/07/23 11:37:50;;;;;;;5.85;4.90;;;;;;;;;;4953428;28;20886;-68
2023/07/23 11:40:20;;;;;;;5.68;4.40;;;;;;;;;;4950440;28;20413;-69
2023/07/23 11:42:45;;;;;;;7.40;4.70;;;;;;;;;;4966665;28;20207;-68
2023/07/23 11:45:10;;;;;;;5.68;4.63;;;;;;;;;;4964534;28;20212;-68
2023/07/23 11:47:46;;;;;;;6.82;4.93;;;;;;;;;;4950491;28;20663;-68
2023/07/23 11:50:18;;;;;;;5.40;4.53;;;;;;;;;;5029303;28;20939;-67
2023/07/23 11:52:45;;;;;;;5.47;3.90;;;;;;;;;;5023848;28;20192;-67
2023/07/23 11:55:25;;;;;;;7.10;3.83;;;;;;;;;;5022301;28;21854;-68
2023/07/23 11:57:54;;;;;;;4.80;3.50;;;;;;;;;;5027989;28;20607;-67
2023/07/23 12:00:24;;;;;;;5.78;3.92;;;;;;;;;;5025528;28;20209;-68
2023/07/23 12:02:50;;;;;;;6.15;4.35;;;;;;;;;;5020939;23;20240;-71
2023/07/23 12:05:15;;;;;;;5.68;4.13;;;;;;;;;;4968202;28;21640;-71
2023/07/23 12:07:40;;;;;;;7.63;4.88;;;;;;;;;;4968044;28;20715;-71
2023/07/23 12:10:05;;;;;;;5.22;4.30;;;;;;;;;;4965134;28;20317;-72
2023/07/23 12:12:32;;;;;;;5.88;4.32;;;;;;;;;;4969309;28;20495;-71
2023/07/23 12:15:02;;;;;;;6.03;4.78;;;;;;;;;;4988906;28;20211;-71
2023/07/23 12:17:27;;;;;;;5.60;3.75;;;;;;;;;;4986041;28;20879;-71
2023/07/23 12:19:52;;;;;;;6.30;4.10;;;;;;;;;;4987617;28;20190;-71
2023/07/23 12:22:18;;;;;;;5.32;3.80;;;;;;;;;;4984621;28;20244;-71
2023/07/23 12:24:43;;;;;;;4.38;3.60;;;;;;;;;;4984320;28;20676;-71
2023/07/23 12:27:08;;;;;;;3.85;3.33;;;;;;;;;;4987023;28;20249;-71
2023/07/23 12:29:39;;;;;;;3.88;3.15;;;;;;;;;;4986328;28;20202;-72
2023/07/23 12:32:11;;;;;;;4.55;3.15;;;;;;;;;;4987136;28;21102;-71
2023/07/23 12:34:38;;;;;;;4.38;3.13;;;;;;;;;;4985784;28;20210;-72
2023/07/23 12:37:03;;;;;;;7.95;3.72;;;;;;;;;;4984973;28;20195;-73
2023/07/23 12:39:28;;;;;;;5.53;4.30;;;;;;;;;;4988287;28;20694;-74
2023/07/23 12:41:53;;;;;;;5.38;4.05;;;;;;;;;;4985896;28;20191;-72
2023/07/23 12:44:19;;;;;;;5.50;4.32;;;;;;;;;;4989988;28;20593;-72
2023/07/23 12:46:44;;;;;;;6.35;4.93;;;;;;;;;;4990422;28;20567;-72
2023/07/23 12:49:09;;;;;;;4.70;3.80;;;;;;;;;;4986237;28;20964;-73
2023/07/23 12:51:34;;;;;;;5.30;4.53;;;;;;;;;;4988095;28;20326;-70
2023/07/23 12:53:59;;;;;;;4.43;3.03;;;;;;;;;;4983303;28;21056;-72
2023/07/23 12:56:25;;;;;;;5.07;3.20;;;;;;;;;;4986253;28;20817;-72
2023/07/23 12:58:50;;;;;;;3.00;2.55;;;;;;;;;;4988372;28;20942;-72
2023/07/23 13:01:15;;;;;;;6.32;3.35;;;;;;;;;;4974365;28;20245;-72
2023/07/23 13:03:42;;;;;;;3.40;2.55;;;;;;;;;;4971660;28;20222;-72
2023/07/23 13:06:07;;;;;;;4.32;2.80;;;;;;;;;;4974869;28;20186;-73
2023/07/23 13:08:32;;;;;;;3.58;2.55;;;;;;;;;;4970440;28;20210;-72
2023/07/23 13:10:58;;;;;;;5.03;2.30;;;;;;;;;;4970902;28;20709;-71
2023/07/23 13:13:23;;;;;;;2.95;2.15;;;;;;;;;;4972290;28;20211;-72
2023/07/23 13:15:48;;;;;;;4.40;2.60;;;;;;;;;;4973315;28;20213;-72
2023/07/23 13:18:13;;;;;;;4.00;2.38;;;;;;;;;;4971975;28;20541;-72
2023/07/23 13:20:39;;;;;;;4.35;2.65;;;;;;;;;;4970420;28;20219;-72
2023/07/23 13:23:05;;;;;;;3.70;2.45;;;;;;;;;;4972870;28;20248;-72
2023/07/23 13:25:30;;;;;;;3.38;2.03;;;;;;;;;;4971612;28;20191;-72
2023/07/23 13:27:55;;;;;;;6.13;2.40;;;;;;;;;;4973948;28;20846;-72
2023/07/23 13:30:21;;;;;;;6.45;2.70;;;;;;;;;;4970176;28;20582;-70
2023/07/23 13:32:46;;;;;;;4.03;2.28;;;;;;;;;;4972196;28;20282;-72
2023/07/23 13:35:11;;;;;;;3.03;1.90;;;;;;;;;;4971971;28;20682;-73
2023/07/23 13:37:36;;;;;;;10.23;2.90;;;;;;;;;;4973982;28;20430;-73
2023/07/23 13:40:02;;;;;;;3.47;2.13;;;;;;;;;;4971173;28;20488;-72
2023/07/23 13:42:27;;;;;;;3.35;2.20;;;;;;;;;;4971515;28;20207;-71
2023/07/23 13:44:52;;;;;;;5.18;2.63;;;;;;;;;;4975842;28;20718;-71
2023/07/23 13:47:17;;;;;;;6.03;2.55;;;;;;;;;;4977326;28;20265;-72
2023/07/23 13:49:43;;;;;;;4.28;2.30;;;;;;;;;;4972573;28;20207;-72
2023/07/23 13:52:08;;;;;;;5.07;2.85;;;;;;;;;;4974668;28;20193;-72
2023/07/23 13:54:33;;;;;;;2.95;1.88;;;;;;;;;;4972858;28;20184;-73
2023/07/23 13:56:59;;;;;;;2.67;2.20;;;;;;;;;;4972757;28;20819;-73
2023/07/23 13:59:34;;;;;;;4.88;2.58;;;;;;;;;;4977767;28;20213;-74
2023/07/23 14:02:00;;;;;;;2.40;1.80;;;;;;;;;;4972785;28;20190;-72
2023/07/23 14:04:25;;;;;;;4.38;2.15;;;;;;;;;;4970247;28;20654;-72
2023/07/23 14:06:50;;;;;;;4.87;1.87;;;;;;;;;;4979243;28;20205;-70
2023/07/23 14:09:16;;;;;;;4.18;1.83;;;;;;;;;;4973591;28;20465;-71
2023/07/23 14:11:41;;;;;;;5.13;2.42;;;;;;;;;;4970593;28;21836;-72
2023/07/23 14:14:07;;;;;;;5.78;1.88;;;;;;;;;;4979440;28;20297;-72
2023/07/23 14:16:32;;;;;;;4.00;2.10;;;;;;;;;;4970553;28;20259;-72
2023/07/23 14:18:57;;;;;;;4.90;2.23;;;;;;;;;;4972700;28;20839;-71
2023/07/23 14:21:23;;;;;;;2.93;2.07;;;;;;;;;;4971712;28;20433;-71
2023/07/23 14:23:48;;;;;;;6.10;1.95;;;;;;;;;;4971286;28;20452;-72
2023/07/23 14:26:14;;;;;;;3.85;2.22;;;;;;;;;;4972670;28;20242;-72
2023/07/23 14:28:39;;;;;;;3.73;1.80;;;;;;;;;;4975594;28;20721;-72
2023/07/23 14:31:04;;;;;;;2.95;1.60;;;;;;;;;;4970631;28;21382;-72